createdAt,value
2018-12-16T00:02:26.458Z,14.00
2018-12-16T00:05:03.199Z,13.20
2018-12-16T00:07:39.289Z,14.20
2018-12-16T00:10:16.535Z,13.57
2018-12-16T00:12:57.235Z,13.40
2018-12-16T00:15:33.899Z,13.77
2018-12-16T00:18:07.825Z,12.17
2018-12-16T00:20:44.396Z,14.37
2018-12-16T00:23:19.405Z,13.40
2018-12-16T00:25:54.807Z,13.73
2018-12-16T00:28:29.273Z,13.67
2018-12-16T00:31:07.394Z,13.47
2018-12-16T00:33:47.290Z,14.90
2018-12-16T00:36:28.037Z,14.70
2018-12-16T00:39:02.502Z,13.10
2018-12-16T00:41:38.428Z,15.30
2018-12-16T00:44:19.686Z,15.80
2018-12-16T00:46:53.927Z,15.20
2018-12-16T00:49:28.386Z,14.97
2018-12-16T00:52:04.044Z,15.80
2018-12-16T00:54:39.307Z,15.67
2018-12-16T00:57:14.726Z,16.33
2018-12-16T00:59:50.995Z,15.57
2018-12-16T01:02:31.092Z,14.27
2018-12-16T01:05:07.992Z,15.90
2018-12-16T01:07:42.885Z,13.97
2018-12-16T01:10:19.071Z,14.00
2018-12-16T01:12:54.414Z,14.40
2018-12-16T01:15:29.412Z,14.13
2018-12-16T01:18:01.926Z,15.50
2018-12-16T01:20:39.162Z,15.37
2018-12-16T01:23:15.655Z,15.33
2018-12-16T01:25:53.111Z,16.50
2018-12-16T01:28:27.666Z,16.60
2018-12-16T01:31:04.068Z,15.77
2018-12-16T01:33:44.592Z,16.23
2018-12-16T01:36:19.227Z,15.73
2018-12-16T01:38:55.686Z,15.73
2018-12-16T01:41:37.446Z,16.33
2018-12-16T01:44:12.629Z,16.20
2018-12-16T01:46:47.089Z,15.10
2018-12-16T01:49:23.441Z,14.53
2018-12-16T01:51:58.370Z,15.43
2018-12-16T01:54:32.357Z,16.57
2018-12-16T01:57:07.031Z,15.67
2018-12-16T01:59:44.611Z,11.77
2018-12-16T02:02:21.188Z,18.00
2018-12-16T02:04:56.256Z,17.53
2018-12-16T02:07:32.017Z,16.77
2018-12-16T02:10:08.796Z,15.80
2018-12-16T02:12:46.251Z,16.63
2018-12-16T02:15:20.990Z,18.17
2018-12-16T02:17:59.082Z,18.33
2018-12-16T08:48:03.411Z,21.33
2018-12-16T08:50:44.461Z,18.50
2018-12-16T08:53:23.602Z,20.50
2018-12-16T08:56:00.962Z,20.80
2018-12-16T08:58:49.456Z,19.57
2018-12-16T09:01:25.728Z,20.87
2018-12-16T09:04:04.758Z,19.63
2018-12-16T09:06:42.191Z,19.80
2018-12-16T09:09:25.182Z,19.30
2018-12-16T09:12:03.947Z,20.60
2018-12-16T09:14:39.952Z,19.90
2018-12-16T09:17:15.403Z,21.23
2018-12-16T09:19:51.913Z,20.30
2018-12-16T09:22:28.423Z,22.87
2018-12-16T09:25:04.649Z,20.77
2018-12-16T09:27:41.073Z,20.47
2018-12-16T09:30:19.354Z,19.77
2018-12-16T09:32:59.923Z,19.80
2018-12-16T09:35:38.270Z,20.13
2018-12-16T09:38:17.753Z,19.30
2018-12-16T09:40:54.410Z,19.77
2018-12-16T09:43:32.658Z,19.17
2018-12-16T09:46:11.340Z,20.63
2018-12-16T09:48:47.713Z,21.33
2018-12-16T09:51:24.793Z,21.10
2018-12-16T09:54:01.619Z,19.63
2018-12-16T09:56:40.221Z,21.10
2018-12-16T10:04:37.207Z,20.93
2018-12-16T10:07:12.036Z,21.80
2018-12-16T10:09:47.864Z,20.57
2018-12-16T10:12:24.228Z,20.67
2018-12-16T10:14:59.141Z,21.13
2018-12-16T10:17:32.026Z,21.23
2018-12-16T10:20:07.995Z,20.13
2018-12-16T10:22:41.049Z,20.17
2018-12-16T10:25:24.203Z,20.60
2018-12-16T10:27:58.886Z,21.43
2018-12-16T10:30:31.745Z,22.13
2018-12-16T10:33:06.399Z,22.13
2018-12-16T10:35:53.090Z,20.07
2018-12-16T10:41:30.348Z,22.30
2018-12-16T10:44:03.528Z,22.70
2018-12-16T10:46:44.687Z,22.10
2018-12-16T10:49:26.218Z,21.43
2018-12-16T10:52:07.646Z,21.70
2018-12-16T11:01:14.176Z,23.30
2018-12-16T11:07:04.858Z,22.60
2018-12-16T11:12:45.474Z,21.80
2018-12-16T11:15:20.872Z,22.07
2018-12-16T11:17:58.112Z,21.50
2018-12-16T11:20:37.004Z,21.83
2018-12-16T11:23:16.377Z,22.90
2018-12-16T11:25:54.334Z,22.17
2018-12-16T11:28:31.504Z,21.77
2018-12-16T11:31:04.232Z,22.83
2018-12-16T11:33:37.510Z,21.40
2018-12-16T11:36:12.266Z,21.80
2018-12-16T11:38:47.674Z,21.27
2018-12-16T11:41:22.519Z,20.87
2018-12-16T11:43:56.186Z,21.83
2018-12-16T11:46:31.484Z,22.20
2018-12-16T11:49:08.790Z,23.53
2018-12-16T11:51:42.080Z,22.23
2018-12-16T11:54:15.123Z,21.07
2018-12-16T11:56:48.220Z,23.53
2018-12-16T11:59:26.263Z,21.93
2018-12-16T12:02:00.243Z,21.73
2018-12-16T12:04:43.070Z,23.27
2018-12-16T12:07:16.763Z,22.07
2018-12-16T12:09:49.793Z,21.33
2018-12-16T12:12:26.333Z,21.87
2018-12-16T12:15:00.127Z,20.23
2018-12-16T12:17:35.724Z,23.30
2018-12-16T12:20:10.918Z,21.73
2018-12-16T12:22:43.735Z,21.53
2018-12-16T12:25:23.343Z,22.87
2018-12-16T12:27:56.669Z,22.70
2018-12-16T12:30:32.870Z,23.40
2018-12-16T12:33:06.985Z,23.80
2018-12-16T12:35:39.926Z,25.67
2018-12-16T12:38:16.371Z,23.07
2018-12-16T12:40:52.123Z,22.10
2018-12-16T12:43:27.852Z,24.10
2018-12-16T12:46:13.024Z,22.77
2018-12-16T12:48:49.213Z,23.07
2018-12-16T12:51:24.118Z,24.40
2018-12-16T12:53:57.370Z,23.33
2018-12-16T12:56:36.285Z,23.50
2018-12-16T12:59:11.794Z,23.57
2018-12-16T13:01:45.238Z,24.60
2018-12-16T13:04:21.850Z,24.70
2018-12-16T13:06:54.811Z,24.90
2018-12-16T13:09:30.387Z,24.30
2018-12-16T13:12:06.016Z,23.00
2018-12-16T13:14:39.483Z,23.30
2018-12-16T13:17:12.490Z,22.97
2018-12-16T13:19:45.441Z,22.53
2018-12-16T13:22:21.116Z,23.73
2018-12-16T13:25:04.690Z,24.37
2018-12-16T13:27:36.702Z,25.43
2018-12-16T13:30:09.274Z,23.87
2018-12-16T13:32:42.366Z,23.17
2018-12-16T13:35:19.709Z,23.60
2018-12-16T13:37:54.457Z,23.60
2018-12-16T13:40:27.593Z,22.83
2018-12-16T13:43:13.097Z,22.87
2018-12-16T13:45:50.094Z,22.37
2018-12-16T13:48:22.839Z,23.07
2018-12-16T13:50:58.428Z,21.23
2018-12-16T13:53:33.678Z,21.00
2018-12-16T13:59:12.610Z,22.57
2018-12-16T14:01:51.967Z,22.63
2018-12-16T14:04:26.940Z,21.03
2018-12-16T14:07:02.172Z,22.30
2018-12-16T14:09:33.183Z,23.07
2018-12-16T14:12:06.469Z,22.10
2018-12-16T14:14:54.113Z,22.47
2018-12-16T14:17:26.690Z,21.63
2018-12-16T14:20:02.103Z,21.33
2018-12-16T14:22:37.563Z,22.43
2018-12-16T14:25:10.842Z,21.60
2018-12-16T14:27:48.769Z,22.47
2018-12-16T14:30:22.366Z,20.17
2018-12-16T14:32:55.555Z,21.70
2018-12-16T14:35:28.779Z,21.27
2018-12-16T14:38:09.192Z,20.17
2018-12-16T14:40:44.195Z,23.07
2018-12-16T14:43:20.528Z,22.20
2018-12-16T14:45:53.190Z,21.10
2018-12-16T14:48:30.780Z,21.83
2018-12-16T14:54:12.783Z,22.83
2018-12-16T14:59:54.092Z,21.77
2018-12-16T15:02:28.793Z,21.80
2018-12-16T15:05:06.377Z,20.90
2018-12-16T15:07:41.921Z,21.67
2018-12-16T15:10:15.066Z,21.40
2018-12-16T15:15:57.561Z,20.67
2018-12-16T15:18:33.265Z,22.10
2018-12-16T15:21:06.944Z,21.83
2018-12-16T15:23:39.443Z,20.70
2018-12-16T15:26:11.878Z,21.87
2018-12-16T15:28:45.171Z,21.53
2018-12-16T15:31:20.669Z,22.03
2018-12-16T15:33:57.241Z,21.37
2018-12-16T15:36:32.626Z,23.30
2018-12-16T15:39:07.821Z,21.70
2018-12-16T15:41:45.392Z,22.30
2018-12-16T15:44:18.853Z,22.27
2018-12-16T15:46:52.130Z,22.50
2018-12-16T15:49:26.126Z,22.60
2018-12-16T15:51:59.547Z,22.97
2018-12-16T15:54:33.103Z,23.43
2018-12-16T15:57:13.282Z,23.30
2018-12-16T15:59:52.525Z,23.47
2018-12-16T16:02:27.424Z,23.77
2018-12-16T16:05:03.031Z,24.23
2018-12-16T16:07:36.173Z,22.93
2018-12-16T16:10:11.699Z,21.93
2018-12-16T16:12:44.700Z,23.47
2018-12-16T16:15:20.234Z,23.27
2018-12-16T16:20:58.469Z,24.13
2018-12-16T16:23:31.726Z,23.73
2018-12-16T16:26:04.284Z,24.53
2018-12-16T16:28:39.105Z,22.93
2018-12-16T16:31:15.215Z,23.23
2018-12-16T16:33:53.514Z,21.90
2018-12-16T16:36:26.174Z,22.97
2018-12-16T16:39:02.832Z,23.57
2018-12-16T16:41:40.092Z,23.33
2018-12-16T16:44:16.811Z,22.53
2018-12-16T16:46:52.995Z,22.73
2018-12-16T16:49:25.985Z,23.07
2018-12-16T16:52:02.518Z,23.80
2018-12-16T16:54:37.535Z,23.87
2018-12-16T16:57:10.752Z,22.60
2018-12-16T16:59:46.057Z,22.97
2018-12-16T17:02:21.045Z,22.07
2018-12-16T17:05:00.448Z,23.53
2018-12-16T17:07:35.278Z,22.67
2018-12-16T17:10:10.256Z,22.93
2018-12-16T17:12:55.236Z,21.63
2018-12-16T17:15:32.455Z,21.50
2018-12-16T17:18:07.766Z,22.33
2018-12-16T17:20:58.566Z,21.80
2018-12-16T17:35:40.280Z,22.77
2018-12-16T17:53:40.699Z,21.13
2018-12-16T17:59:20.421Z,23.43
2018-12-16T18:02:04.261Z,22.17
2018-12-16T18:04:53.584Z,24.30
2018-12-16T18:07:40.621Z,21.37
2018-12-16T18:13:23.466Z,21.67
2018-12-16T18:16:09.765Z,22.33
2018-12-16T18:18:58.899Z,21.30
2018-12-16T18:30:34.474Z,21.80
2018-12-16T18:33:25.442Z,21.33
2018-12-16T18:36:13.409Z,21.50
2018-12-16T18:38:53.021Z,21.20
2018-12-16T18:41:38.918Z,21.20
2018-12-16T18:47:22.760Z,20.13
2018-12-16T18:50:01.725Z,20.70
2018-12-16T18:55:46.979Z,21.33
2018-12-16T19:07:29.194Z,21.27
2018-12-16T19:13:05.561Z,20.97
2018-12-16T19:21:49.881Z,19.73
2018-12-16T19:39:47.408Z,18.80
2018-12-16T19:48:54.745Z,18.50
2018-12-16T20:03:50.466Z,19.07
2018-12-16T20:10:01.758Z,17.90
2018-12-16T20:27:48.242Z,16.40
2018-12-16T20:40:01.572Z,17.67
2018-12-16T20:52:08.524Z,16.67
2018-12-16T20:55:01.106Z,15.80
2018-12-16T21:07:11.426Z,16.40
2018-12-16T21:09:59.505Z,15.63
2018-12-16T21:24:55.840Z,15.30
2018-12-16T21:39:55.830Z,14.70
2018-12-16T21:45:54.337Z,14.90
2018-12-16T21:48:37.546Z,14.20
2018-12-16T21:51:22.044Z,14.87
2018-12-16T21:57:10.724Z,14.10
2018-12-16T21:59:56.792Z,13.30
2018-12-16T22:20:46.668Z,13.60
2018-12-16T22:32:51.013Z,13.47
2018-12-16T22:35:27.546Z,13.00
2018-12-16T22:41:15.023Z,13.03
2018-12-16T22:43:59.881Z,11.73
2018-12-16T22:49:57.052Z,12.17
2018-12-16T23:05:00.543Z,11.97
2018-12-16T23:20:05.022Z,11.73
